createdAt,value
2023-03-29T00:00:38.705Z,48.9622
2023-03-29T00:01:40.139Z,48.9964
2023-03-29T00:02:53.386Z,48.9965
2023-03-29T00:03:43.066Z,48.9653
2023-03-29T00:04:44.436Z,48.9941
2023-03-29T00:05:45.945Z,49.0121
2023-03-29T00:06:47.284Z,49.0090
2023-03-29T00:07:48.729Z,48.9933
2023-03-29T00:08:50.167Z,49.0143
2023-03-29T00:09:51.563Z,48.9936
2023-03-29T00:10:52.998Z,49.0219
2023-03-29T00:11:54.422Z,48.9866
2023-03-29T00:12:55.848Z,49.0565
2023-03-29T00:13:57.298Z,49.1376
2023-03-29T00:14:58.722Z,49.1672
2023-03-29T00:16:00.145Z,49.1689
2023-03-29T00:17:01.613Z,49.2057
2023-03-29T00:18:02.999Z,49.1698
2023-03-29T00:19:04.443Z,49.1355
2023-03-29T00:20:05.854Z,49.1268
2023-03-29T00:21:07.302Z,49.1340
2023-03-29T00:22:08.741Z,49.1168
2023-03-29T00:23:10.171Z,49.1302
2023-03-29T00:24:11.560Z,49.1922
2023-03-29T00:25:13.074Z,49.3494
2023-03-29T00:26:14.489Z,49.3625
2023-03-29T00:27:15.889Z,49.3339
2023-03-29T00:28:17.336Z,49.2454
2023-03-29T00:29:18.801Z,49.1673
2023-03-29T00:30:20.159Z,49.1536
2023-03-29T00:31:21.646Z,49.2090
2023-03-29T00:32:23.051Z,49.3594
2023-03-29T00:33:24.475Z,49.4372
2023-03-29T00:34:25.899Z,49.4690
2023-03-29T00:35:27.360Z,49.5117
2023-03-29T00:36:28.771Z,49.4966
2023-03-29T00:37:30.217Z,49.5601
2023-03-29T00:38:31.773Z,49.5676
2023-03-29T00:39:33.032Z,49.5773
2023-03-29T00:40:34.466Z,49.5656
2023-03-29T00:41:35.914Z,49.5939
2023-03-29T00:42:37.363Z,49.6021
2023-03-29T00:43:38.749Z,49.5858
2023-03-29T00:44:40.171Z,49.5583
2023-03-29T00:45:41.588Z,49.5790
2023-03-29T00:46:43.117Z,49.5832
2023-03-29T00:47:44.542Z,49.5627
2023-03-29T00:48:45.922Z,49.5361
2023-03-29T00:49:47.300Z,49.5522
2023-03-29T00:50:48.772Z,49.5623
2023-03-29T00:51:50.177Z,49.5534
2023-03-29T00:52:51.602Z,49.5340
2023-03-29T00:53:53.032Z,49.5218
2023-03-29T00:54:54.457Z,49.5556
2023-03-29T00:55:55.886Z,49.5358
2023-03-29T00:56:57.430Z,49.5567
2023-03-29T00:57:58.742Z,49.5486
2023-03-29T00:59:00.172Z,49.5522
2023-03-29T01:00:01.609Z,49.5528
2023-03-29T01:01:03.316Z,49.5593
2023-03-29T01:02:04.503Z,49.5654
2023-03-29T01:03:05.961Z,49.5519
2023-03-29T01:04:07.312Z,49.5730
2023-03-29T01:05:08.719Z,49.5828
2023-03-29T01:06:10.126Z,49.5987
2023-03-29T01:07:11.632Z,49.5836
2023-03-29T01:08:12.992Z,49.5731
2023-03-29T01:09:14.428Z,49.5524
2023-03-29T01:10:15.844Z,49.5554
2023-03-29T01:11:17.524Z,49.5479
2023-03-29T01:12:18.704Z,49.5557
2023-03-29T01:13:20.110Z,49.5583
2023-03-29T01:14:21.542Z,49.5355
2023-03-29T01:15:23.020Z,49.5345
2023-03-29T01:16:24.420Z,49.5452
2023-03-29T01:17:25.919Z,49.5421
2023-03-29T01:18:27.269Z,49.5374
2023-03-29T01:19:28.726Z,49.5365
2023-03-29T01:20:30.133Z,49.5475
2023-03-29T01:21:31.610Z,49.5659
2023-03-29T01:22:33.008Z,49.5659
2023-03-29T01:23:34.431Z,49.5590
2023-03-29T01:24:35.865Z,49.5674
2023-03-29T01:25:37.293Z,49.5789
2023-03-29T01:26:38.722Z,49.5542
2023-03-29T01:27:40.160Z,49.5297
2023-03-29T01:28:41.547Z,49.5089
2023-03-29T01:29:42.992Z,49.5088
2023-03-29T01:30:44.423Z,49.5147
2023-03-29T01:31:45.976Z,49.5137
2023-03-29T01:32:47.293Z,49.5480
2023-03-29T01:33:48.738Z,49.5879
2023-03-29T01:34:50.098Z,49.6009
2023-03-29T01:35:51.589Z,49.6178
2023-03-29T01:36:52.951Z,49.6258
2023-03-29T01:37:54.450Z,49.6462
2023-03-29T01:38:55.817Z,49.6421
2023-03-29T01:39:57.254Z,49.6033
2023-03-29T01:40:58.663Z,49.6250
2023-03-29T01:42:00.102Z,49.6418
2023-03-29T01:43:01.560Z,49.6512
2023-03-29T01:44:03.011Z,49.6821
2023-03-29T01:45:04.384Z,49.6802
2023-03-29T01:46:05.830Z,49.6623
2023-03-29T01:47:07.270Z,49.6507
2023-03-29T01:48:08.691Z,49.6451
2023-03-29T01:49:10.087Z,49.6280
2023-03-29T01:50:11.550Z,49.6257
2023-03-29T01:51:12.947Z,49.6071
2023-03-29T01:52:14.391Z,49.6069
2023-03-29T01:53:15.824Z,49.6300
2023-03-29T01:54:17.244Z,49.6348
2023-03-29T01:55:18.659Z,49.6194
2023-03-29T01:56:20.101Z,49.6021
2023-03-29T01:57:21.536Z,49.5914
2023-03-29T01:58:22.946Z,49.5762
2023-03-29T01:59:24.341Z,49.5847
2023-03-29T02:00:25.796Z,49.5855
2023-03-29T02:01:27.248Z,49.5900
2023-03-29T02:02:28.754Z,49.5909
2023-03-29T02:03:30.140Z,49.5750
2023-03-29T02:04:31.492Z,49.5445
2023-03-29T02:05:32.922Z,49.5253
2023-03-29T02:06:34.445Z,49.5233
2023-03-29T02:07:35.761Z,49.5103
2023-03-29T02:08:37.229Z,49.5073
2023-03-29T02:09:38.630Z,49.5050
2023-03-29T02:10:40.080Z,49.5245
2023-03-29T02:11:41.466Z,49.5007
2023-03-29T02:12:42.929Z,49.5172
2023-03-29T02:13:44.441Z,49.5091
2023-03-29T02:14:45.867Z,49.4958
2023-03-29T02:15:47.386Z,49.5041
2023-03-29T02:16:48.702Z,49.4725
2023-03-29T02:17:50.174Z,49.4785
2023-03-29T02:18:51.543Z,49.4999
2023-03-29T02:19:52.984Z,49.5263
2023-03-29T02:20:54.398Z,49.5324
2023-03-29T02:21:55.813Z,49.5193
2023-03-29T02:22:57.278Z,49.5296
2023-03-29T02:23:58.676Z,49.5144
2023-03-29T02:25:00.132Z,49.5115
2023-03-29T02:26:01.521Z,49.5250
2023-03-29T02:27:02.949Z,49.5431
2023-03-29T02:28:04.384Z,49.5346
2023-03-29T02:29:05.806Z,49.5515
2023-03-29T02:30:07.238Z,49.5544
2023-03-29T02:31:08.687Z,49.5696
2023-03-29T02:32:10.073Z,49.5632
2023-03-29T02:33:11.625Z,49.5554
2023-03-29T02:34:12.977Z,49.5715
2023-03-29T02:35:14.339Z,49.5670
2023-03-29T02:36:15.779Z,49.5624
2023-03-29T02:37:17.193Z,49.5279
2023-03-29T02:38:18.660Z,49.5439
2023-03-29T02:39:20.049Z,49.5624
2023-03-29T02:40:21.490Z,49.5465
2023-03-29T02:41:22.893Z,49.5183
2023-03-29T02:42:24.318Z,49.5479
2023-03-29T02:43:26.139Z,49.5476
2023-03-29T02:44:27.160Z,49.5621
2023-03-29T02:45:28.618Z,49.5586
2023-03-29T02:46:30.055Z,49.5469
2023-03-29T02:47:31.506Z,49.5438
2023-03-29T02:48:32.945Z,49.5773
2023-03-29T02:49:34.309Z,49.5702
2023-03-29T02:50:35.733Z,49.5771
2023-03-29T02:51:37.160Z,49.5725
2023-03-29T02:52:38.590Z,49.5681
2023-03-29T02:53:40.052Z,49.5537
2023-03-29T02:54:41.437Z,49.5326
2023-03-29T02:55:42.964Z,49.5150
2023-03-29T02:56:44.334Z,49.5223
2023-03-29T02:57:45.755Z,49.5461
2023-03-29T02:58:47.183Z,49.5162
2023-03-29T02:59:48.604Z,49.5471
2023-03-29T03:00:50.005Z,49.5698
2023-03-29T03:01:51.512Z,49.5850
2023-03-29T03:02:52.965Z,49.5642
2023-03-29T03:03:54.354Z,49.5683
2023-03-29T03:04:55.757Z,49.5744
2023-03-29T03:05:57.161Z,49.5549
2023-03-29T03:06:58.576Z,49.5905
2023-03-29T03:08:00.013Z,49.6327
2023-03-29T03:09:02.022Z,49.5992
2023-03-29T03:10:02.887Z,49.6110
2023-03-29T03:11:04.507Z,49.5961
2023-03-29T03:12:05.734Z,49.6131
2023-03-29T03:13:07.168Z,49.6539
2023-03-29T03:14:08.606Z,49.6597
2023-03-29T03:15:10.024Z,49.6527
2023-03-29T03:16:11.456Z,49.6401
2023-03-29T03:17:12.859Z,49.6135
2023-03-29T03:18:14.294Z,49.5861
2023-03-29T03:19:15.740Z,49.5981
2023-03-29T03:20:17.147Z,49.6283
2023-03-29T03:21:18.589Z,49.6265
2023-03-29T03:22:20.006Z,49.6603
2023-03-29T03:23:21.489Z,49.6445
2023-03-29T03:24:22.860Z,49.6211
2023-03-29T03:25:24.259Z,49.6368
2023-03-29T03:26:25.692Z,49.6291
2023-03-29T03:27:27.147Z,49.6406
2023-03-29T03:28:28.653Z,49.6437
2023-03-29T03:29:30.006Z,49.6499
2023-03-29T03:30:31.464Z,49.6651
2023-03-29T03:31:32.928Z,49.7152
2023-03-29T03:32:34.327Z,49.7633
2023-03-29T03:33:35.726Z,49.8286
2023-03-29T03:34:37.148Z,49.8219
2023-03-29T03:35:38.589Z,49.8178
2023-03-29T03:36:39.984Z,49.8034
2023-03-29T03:37:41.408Z,49.8231
2023-03-29T03:38:42.869Z,49.9336
2023-03-29T03:39:44.274Z,50.0586
2023-03-29T03:40:45.702Z,50.1610
2023-03-29T03:41:47.155Z,50.2025
2023-03-29T03:42:48.541Z,50.2484
2023-03-29T03:43:49.970Z,50.3048
2023-03-29T03:44:51.427Z,50.3200
2023-03-29T03:45:52.927Z,50.3856
2023-03-29T03:46:54.251Z,50.4156
2023-03-29T03:47:55.675Z,50.4418
2023-03-29T03:48:57.161Z,50.4735
2023-03-29T03:49:58.534Z,50.4875
2023-03-29T03:51:00.052Z,50.4825
2023-03-29T03:52:01.389Z,50.4709
2023-03-29T03:53:02.808Z,50.4907
2023-03-29T03:54:04.292Z,50.4937
2023-03-29T03:55:05.691Z,50.4976
2023-03-29T03:56:07.090Z,50.5037
2023-03-29T03:57:08.528Z,50.5553
2023-03-29T03:58:09.962Z,50.4882
2023-03-29T03:59:11.400Z,50.4993
2023-03-29T04:00:12.804Z,50.5362
2023-03-29T04:01:14.237Z,50.5768
2023-03-29T04:02:15.735Z,50.6398
2023-03-29T04:03:17.263Z,50.5977
2023-03-29T04:04:18.552Z,50.5240
2023-03-29T04:05:20.024Z,50.5037
2023-03-29T04:06:21.363Z,50.4395
2023-03-29T04:07:22.820Z,50.4811
2023-03-29T04:08:24.233Z,50.6156
2023-03-29T04:09:25.696Z,50.6662
2023-03-29T04:10:27.100Z,50.7174
2023-03-29T04:11:28.538Z,50.6796
2023-03-29T04:12:29.981Z,50.6481
2023-03-29T04:13:31.384Z,50.5331
2023-03-29T04:14:32.808Z,50.5342
2023-03-29T04:15:34.304Z,50.5061
2023-03-29T04:16:35.663Z,50.5125
2023-03-29T04:17:37.201Z,50.5061
2023-03-29T04:18:38.593Z,50.5402
2023-03-29T04:19:39.988Z,50.5254
2023-03-29T04:20:41.376Z,50.5335
2023-03-29T04:21:42.823Z,50.5163
2023-03-29T04:22:44.325Z,50.5086
2023-03-29T04:23:45.678Z,50.5037
2023-03-29T04:24:47.100Z,50.5047
2023-03-29T04:25:48.528Z,50.5123
2023-03-29T04:26:49.958Z,50.5125
2023-03-29T04:27:51.389Z,50.4958
2023-03-29T04:28:52.797Z,50.4722
2023-03-29T04:29:54.267Z,50.4918
2023-03-29T04:30:55.658Z,50.4879
2023-03-29T04:31:57.096Z,50.4758
2023-03-29T04:32:58.606Z,50.5024
2023-03-29T04:34:00.514Z,50.5030
2023-03-29T04:35:01.441Z,50.4944
2023-03-29T04:36:02.837Z,50.5003
2023-03-29T04:37:04.220Z,50.4884
2023-03-29T04:38:05.652Z,50.4764
2023-03-29T04:39:07.104Z,50.4297
2023-03-29T04:40:08.540Z,50.4216
2023-03-29T04:41:10.963Z,50.4285
2023-03-29T04:42:11.459Z,50.4233
2023-03-29T04:43:12.804Z,50.4103
2023-03-29T04:44:14.218Z,50.3870
2023-03-29T04:45:15.722Z,50.4146
2023-03-29T04:46:17.148Z,50.4242
2023-03-29T04:47:18.500Z,50.3999
2023-03-29T04:48:19.937Z,50.4237
2023-03-29T04:49:21.802Z,50.4161
2023-03-29T04:50:22.797Z,50.4202
2023-03-29T04:51:24.237Z,50.3958
2023-03-29T04:52:25.662Z,50.4083
2023-03-29T04:53:27.080Z,50.3814
2023-03-29T04:54:28.536Z,50.3682
2023-03-29T04:55:29.925Z,50.3396
2023-03-29T04:56:31.375Z,50.3264
2023-03-29T04:57:32.793Z,50.3406
2023-03-29T04:58:34.230Z,50.3436
2023-03-29T04:59:35.664Z,50.3682
2023-03-29T05:00:37.090Z,50.3538
2023-03-29T05:01:42.738Z,50.3128
2023-03-29T05:02:39.316Z,50.0619
2023-03-29T05:03:41.365Z,48.6434
2023-03-29T05:04:42.873Z,47.4418
2023-03-29T05:05:44.211Z,46.3253
2023-03-29T05:06:45.632Z,44.8822
2023-03-29T05:07:47.083Z,43.9688
2023-03-29T05:08:48.471Z,43.0129
2023-03-29T05:09:49.924Z,42.5927
2023-03-29T05:10:51.325Z,44.8323
2023-03-29T05:11:52.772Z,47.0648
2023-03-29T05:12:54.461Z,47.2723
2023-03-29T05:13:55.633Z,46.7479
2023-03-29T05:14:57.013Z,46.5589
2023-03-29T05:15:58.490Z,46.8577
2023-03-29T05:16:59.905Z,47.3190
2023-03-29T05:18:01.374Z,47.7054
2023-03-29T05:19:02.755Z,47.6764
2023-03-29T05:20:04.182Z,47.6591
2023-03-29T05:21:05.613Z,47.9533
2023-03-29T05:22:07.044Z,48.1175
2023-03-29T05:23:08.426Z,48.2293
2023-03-29T05:24:09.909Z,48.3898
2023-03-29T05:25:11.318Z,48.5168
2023-03-29T05:26:12.729Z,48.2282
2023-03-29T05:27:14.181Z,48.3306
2023-03-29T05:28:15.589Z,48.4360
2023-03-29T05:29:17.017Z,48.3651
2023-03-29T05:30:18.433Z,47.3386
2023-03-29T05:31:19.919Z,46.5421
2023-03-29T05:32:22.097Z,46.3695
2023-03-29T05:33:22.749Z,46.1240
2023-03-29T05:34:24.155Z,46.1528
2023-03-29T05:35:25.545Z,46.2313
2023-03-29T05:36:26.993Z,46.3393
2023-03-29T05:37:28.404Z,46.5091
2023-03-29T05:38:29.829Z,46.6412
2023-03-29T05:39:31.253Z,46.7038
2023-03-29T05:40:32.725Z,46.7667
2023-03-29T05:41:34.116Z,46.7603
2023-03-29T05:42:35.552Z,46.7264
2023-03-29T05:43:37.000Z,46.6865
2023-03-29T05:44:38.454Z,46.7341
2023-03-29T05:45:39.818Z,47.0331
2023-03-29T05:46:41.305Z,47.0710
2023-03-29T05:47:42.847Z,46.9122
2023-03-29T05:48:44.079Z,46.9664
2023-03-29T05:49:45.639Z,47.0573
2023-03-29T05:50:47.040Z,47.0864
2023-03-29T05:51:48.377Z,47.0139
2023-03-29T05:52:49.783Z,47.0734
2023-03-29T05:53:51.215Z,47.1455
2023-03-29T05:54:52.633Z,47.0710
2023-03-29T05:55:54.106Z,46.8394
2023-03-29T05:56:55.534Z,46.7448
2023-03-29T05:57:56.925Z,46.5499
2023-03-29T05:58:58.363Z,46.5197
2023-03-29T05:59:59.818Z,46.5368
2023-03-29T06:01:01.479Z,46.5404
2023-03-29T06:02:02.737Z,46.6393
2023-03-29T06:03:17.651Z,46.8756
2023-03-29T06:04:05.504Z,47.0074
2023-03-29T06:05:06.996Z,47.0687
2023-03-29T06:06:08.343Z,47.0964
2023-03-29T06:07:09.785Z,47.1990
2023-03-29T06:08:11.210Z,47.3409
2023-03-29T06:09:12.628Z,47.4071
2023-03-29T06:10:14.064Z,47.3909
2023-03-29T06:11:15.468Z,47.4682
2023-03-29T06:12:16.931Z,47.6850
2023-03-29T06:13:18.328Z,47.6452
2023-03-29T06:14:19.755Z,47.7269
2023-03-29T06:15:21.313Z,47.6586
2023-03-29T06:16:22.765Z,47.5986
2023-03-29T06:17:24.219Z,47.5395
2023-03-29T06:18:25.565Z,47.4318
2023-03-29T06:19:26.974Z,47.5447
2023-03-29T06:20:28.400Z,47.4985
2023-03-29T06:21:29.829Z,47.3539
2023-03-29T06:22:31.250Z,47.3967
2023-03-29T06:23:32.666Z,47.4702
2023-03-29T06:24:34.087Z,47.4267
2023-03-29T06:25:35.514Z,47.1641
2023-03-29T06:26:36.962Z,46.8229
2023-03-29T06:27:38.377Z,46.8209
2023-03-29T06:28:39.782Z,46.5106
2023-03-29T06:29:41.249Z,46.5499
2023-03-29T06:30:42.642Z,46.4729
2023-03-29T06:31:44.154Z,46.3263
2023-03-29T06:32:45.554Z,46.1157
2023-03-29T06:33:46.965Z,46.0260
2023-03-29T06:34:48.362Z,45.9121
2023-03-29T06:35:49.907Z,45.8116
2023-03-29T06:36:51.202Z,45.5341
2023-03-29T06:37:52.644Z,45.4741
2023-03-29T06:38:54.082Z,45.3610
2023-03-29T06:39:55.505Z,45.2749
2023-03-29T06:40:56.948Z,45.0657
2023-03-29T06:41:58.351Z,44.8014
2023-03-29T06:42:59.762Z,44.5912
2023-03-29T06:44:01.218Z,44.1554
2023-03-29T06:45:02.666Z,43.9410
2023-03-29T06:46:04.138Z,43.8485
2023-03-29T06:47:05.577Z,43.9047
2023-03-29T06:48:06.972Z,43.9102
2023-03-29T06:49:08.350Z,43.8879
2023-03-29T06:50:09.798Z,43.8440
2023-03-29T06:51:11.201Z,43.8479
2023-03-29T06:52:12.665Z,43.9798
2023-03-29T06:53:14.060Z,44.0600
2023-03-29T06:54:15.469Z,44.1530
2023-03-29T06:55:16.878Z,44.3197
2023-03-29T06:56:18.335Z,44.4885
2023-03-29T06:57:19.848Z,44.5099
2023-03-29T06:58:21.175Z,44.7209
2023-03-29T06:59:22.628Z,44.8169
2023-03-29T07:00:24.038Z,45.0952
2023-03-29T07:01:25.486Z,45.0315
2023-03-29T07:02:26.947Z,44.9782
2023-03-29T07:03:28.319Z,45.0742
2023-03-29T07:04:29.831Z,45.3807
2023-03-29T07:05:31.174Z,45.2626
2023-03-29T07:06:32.605Z,45.2578
2023-03-29T07:07:34.028Z,45.2529
2023-03-29T07:08:35.442Z,45.1720
2023-03-29T07:09:36.874Z,45.0736
2023-03-29T07:10:38.357Z,45.1529
2023-03-29T07:11:39.747Z,45.2178
2023-03-29T07:12:41.146Z,45.2724
2023-03-29T07:13:42.807Z,45.4666
2023-03-29T07:14:46.242Z,45.5198
2023-03-29T07:15:45.425Z,45.6301
2023-03-29T07:16:47.104Z,45.6589
2023-03-29T07:17:48.289Z,45.8311
2023-03-29T07:18:49.701Z,45.8085
2023-03-29T07:19:51.109Z,45.8309
2023-03-29T07:20:52.594Z,45.8216
2023-03-29T07:21:54.014Z,45.8045
2023-03-29T07:22:55.405Z,45.7880
2023-03-29T07:23:56.820Z,45.8726
2023-03-29T07:24:58.244Z,45.9579
2023-03-29T07:25:59.649Z,45.9488
2023-03-29T07:27:04.486Z,45.9399
2023-03-29T07:28:02.499Z,46.0132
2023-03-29T07:29:03.925Z,46.0719
2023-03-29T07:30:05.348Z,46.0851
2023-03-29T07:31:06.814Z,46.1716
2023-03-29T07:32:08.290Z,46.2216
2023-03-29T07:33:09.782Z,46.1834
2023-03-29T07:34:11.134Z,46.3432
2023-03-29T07:35:12.529Z,46.3831
2023-03-29T07:36:13.993Z,46.3276
2023-03-29T07:37:15.371Z,46.3039
2023-03-29T07:38:16.828Z,46.2773
2023-03-29T07:39:18.206Z,46.3056
2023-03-29T07:40:19.639Z,46.2845
2023-03-29T07:41:21.050Z,46.2918
2023-03-29T07:42:22.493Z,46.3177
2023-03-29T07:43:23.902Z,46.2915
2023-03-29T07:44:25.333Z,46.3368
2023-03-29T07:45:28.587Z,46.3978
2023-03-29T07:46:28.225Z,46.4412
2023-03-29T07:47:29.649Z,46.4591
2023-03-29T07:48:31.024Z,46.4358
2023-03-29T07:49:32.464Z,46.4701
2023-03-29T07:50:33.877Z,46.4866
2023-03-29T07:51:35.315Z,46.4658
2023-03-29T07:52:36.735Z,46.5179
2023-03-29T07:53:38.174Z,46.5798
2023-03-29T07:54:39.600Z,46.6215
2023-03-29T07:55:41.001Z,46.6306
2023-03-29T07:56:42.449Z,46.6359
2023-03-29T07:57:43.857Z,46.6141
2023-03-29T07:58:45.297Z,46.5967
2023-03-29T07:59:46.723Z,46.6138
2023-03-29T08:00:48.151Z,46.6055
2023-03-29T08:01:49.567Z,46.7472
2023-03-29T08:02:51.025Z,46.8549
2023-03-29T08:03:52.550Z,46.8954
2023-03-29T08:04:54.032Z,46.8484
2023-03-29T08:05:55.283Z,46.7599
2023-03-29T08:06:56.695Z,46.6843
2023-03-29T08:07:58.125Z,46.6491
2023-03-29T08:08:59.554Z,46.6631
2023-03-29T08:10:01.001Z,46.8030
2023-03-29T08:11:02.585Z,46.8374
2023-03-29T08:12:03.822Z,45.5588
2023-03-29T08:13:05.257Z,44.3916
2023-03-29T08:14:06.710Z,45.0497
2023-03-29T08:15:08.194Z,44.2858
2023-03-29T08:16:09.542Z,43.4580
2023-03-29T08:17:11.050Z,43.0430
2023-03-29T08:18:12.470Z,42.7676
2023-03-29T08:19:13.810Z,44.3743
2023-03-29T08:20:15.249Z,44.3669
2023-03-29T08:21:16.665Z,44.2832
2023-03-29T08:22:18.102Z,44.3586
2023-03-29T08:23:19.538Z,44.5004
2023-03-29T08:24:21.174Z,44.5969
2023-03-29T08:25:22.383Z,44.6045
2023-03-29T08:26:23.803Z,44.6524
2023-03-29T08:27:25.214Z,44.7021
2023-03-29T08:28:26.684Z,44.5338
2023-03-29T08:29:28.082Z,44.2730
2023-03-29T08:30:29.519Z,43.8528
2023-03-29T08:31:31.004Z,43.4803
2023-03-29T08:32:32.383Z,41.9875
2023-03-29T08:33:33.809Z,41.3200
2023-03-29T08:34:35.205Z,40.8201
2023-03-29T08:35:36.662Z,40.8025
2023-03-29T08:36:38.060Z,41.7993
2023-03-29T08:37:39.491Z,41.4541
2023-03-29T08:38:40.986Z,41.7924
2023-03-29T08:39:42.359Z,42.0855
2023-03-29T08:40:43.761Z,42.2778
2023-03-29T08:41:45.171Z,42.3942
2023-03-29T08:42:46.596Z,42.4791
2023-03-29T08:43:48.050Z,42.5917
2023-03-29T08:44:49.470Z,42.6821
2023-03-29T08:45:51.236Z,42.8104
2023-03-29T08:46:52.358Z,42.9371
2023-03-29T08:47:53.818Z,43.0427
2023-03-29T08:48:55.197Z,43.0222
2023-03-29T08:49:56.597Z,43.0659
2023-03-29T08:50:58.022Z,43.1447
2023-03-29T08:51:59.451Z,43.1130
2023-03-29T08:53:00.866Z,43.1548
2023-03-29T08:54:02.326Z,43.1745
2023-03-29T08:55:03.732Z,43.1966
2023-03-29T08:56:05.201Z,43.2818
2023-03-29T08:57:06.589Z,43.3771
2023-03-29T08:58:08.004Z,43.3922
2023-03-29T08:59:09.483Z,43.4036
2023-03-29T09:00:10.867Z,43.4910
2023-03-29T09:01:12.344Z,43.5235
2023-03-29T09:02:13.749Z,43.4920
2023-03-29T09:03:15.213Z,43.4678
2023-03-29T09:04:16.605Z,43.4737
2023-03-29T09:05:18.049Z,43.5268
2023-03-29T09:06:19.454Z,43.5831
2023-03-29T09:07:20.889Z,43.7032
2023-03-29T09:08:22.302Z,43.7538
2023-03-29T09:09:23.750Z,43.8109
2023-03-29T09:10:25.183Z,43.8151
2023-03-29T09:11:26.627Z,43.7965
2023-03-29T09:12:28.013Z,43.8190
2023-03-29T09:13:29.535Z,43.8127
2023-03-29T09:14:30.873Z,43.7788
2023-03-29T09:15:32.391Z,43.7545
2023-03-29T09:16:33.764Z,43.7507
2023-03-29T09:17:35.186Z,43.6928
2023-03-29T09:18:36.632Z,43.6507
2023-03-29T09:19:38.030Z,43.6496
2023-03-29T09:20:39.516Z,43.6527
2023-03-29T09:21:40.872Z,43.6570
2023-03-29T09:22:42.313Z,43.6346
2023-03-29T09:23:43.744Z,43.6677
2023-03-29T09:24:45.177Z,43.7165
2023-03-29T09:25:53.554Z,43.6870
2023-03-29T09:26:48.041Z,43.7375
2023-03-29T09:27:49.461Z,43.7262
2023-03-29T09:28:50.896Z,43.7662
2023-03-29T09:29:52.299Z,43.7824
2023-03-29T09:30:53.750Z,43.8101
2023-03-29T09:31:55.153Z,43.7961
2023-03-29T09:32:56.652Z,43.8583
2023-03-29T09:33:57.994Z,43.8823
2023-03-29T09:34:59.444Z,43.9451
2023-03-29T09:36:00.899Z,43.9521
2023-03-29T09:37:02.272Z,43.9563
2023-03-29T09:38:03.702Z,43.9339
2023-03-29T09:39:05.157Z,43.9529
2023-03-29T09:40:06.568Z,44.0237
2023-03-29T09:41:07.997Z,43.9977
2023-03-29T09:42:09.494Z,43.6091
2023-03-29T09:43:10.853Z,43.2024
2023-03-29T09:44:20.773Z,43.2850
2023-03-29T09:45:13.718Z,43.5048
2023-03-29T09:46:15.216Z,43.5080
2023-03-29T09:47:16.547Z,43.6479
2023-03-29T09:48:17.957Z,43.5945
2023-03-29T09:49:19.409Z,43.6246
2023-03-29T09:50:30.960Z,43.6657
2023-03-29T09:51:22.342Z,43.7541
2023-03-29T09:52:23.690Z,43.8126
2023-03-29T09:53:25.126Z,43.9042
2023-03-29T09:54:26.534Z,43.8385
2023-03-29T09:55:27.967Z,43.9135
2023-03-29T09:56:29.400Z,44.0174
2023-03-29T09:57:30.943Z,43.9982
2023-03-29T09:58:32.239Z,43.9542
2023-03-29T09:59:33.684Z,43.9662
2023-03-29T10:00:35.105Z,44.1032
2023-03-29T10:01:36.553Z,44.0923
2023-03-29T10:02:38.036Z,44.2829
2023-03-29T10:03:39.404Z,44.4883
2023-03-29T10:04:40.881Z,44.5230
2023-03-29T10:05:42.245Z,44.5524
2023-03-29T10:06:43.676Z,44.6891
2023-03-29T10:07:45.149Z,44.7524
2023-03-29T10:08:46.522Z,44.8027
2023-03-29T10:09:47.980Z,44.8085
2023-03-29T10:10:49.392Z,44.8421
2023-03-29T10:11:50.875Z,44.9577
2023-03-29T10:12:52.256Z,45.0395
2023-03-29T10:13:53.700Z,45.1186
2023-03-29T10:14:55.193Z,45.1424
2023-03-29T10:15:56.549Z,45.1755
2023-03-29T10:16:58.046Z,45.1995
2023-03-29T10:17:59.607Z,45.2328
2023-03-29T10:19:00.932Z,45.2671
2023-03-29T10:20:04.217Z,45.2928
2023-03-29T10:21:04.146Z,45.3334
2023-03-29T10:22:05.223Z,45.3645
2023-03-29T10:23:06.648Z,45.3745
2023-03-29T10:24:08.071Z,45.3895
2023-03-29T10:25:09.491Z,45.3918
2023-03-29T10:26:10.910Z,45.4188
2023-03-29T10:27:12.325Z,45.5423
2023-03-29T10:28:13.764Z,45.5646
2023-03-29T10:29:15.169Z,45.5684
2023-03-29T10:30:16.626Z,45.4784
2023-03-29T10:31:18.075Z,45.4867
2023-03-29T10:32:19.483Z,45.4859
2023-03-29T10:33:20.930Z,45.4801
2023-03-29T10:34:22.319Z,45.5516
2023-03-29T10:35:23.742Z,45.6304
2023-03-29T10:36:25.173Z,45.6639
2023-03-29T10:37:26.613Z,45.5981
2023-03-29T10:38:28.037Z,45.5828
2023-03-29T10:39:29.446Z,45.5721
2023-03-29T10:40:30.947Z,45.5664
2023-03-29T10:41:32.305Z,45.6268
2023-03-29T10:42:33.754Z,45.6204
2023-03-29T10:43:35.170Z,45.7113
2023-03-29T10:44:36.638Z,45.8676
2023-03-29T10:45:38.043Z,45.9337
2023-03-29T10:46:39.496Z,45.9772
2023-03-29T10:47:40.930Z,46.0602
2023-03-29T10:48:42.309Z,46.0747
2023-03-29T10:49:43.741Z,46.0803
2023-03-29T10:50:45.165Z,46.1538
2023-03-29T10:51:46.593Z,46.2067
2023-03-29T10:52:48.022Z,46.2207
2023-03-29T10:53:49.434Z,46.3012
2023-03-29T10:54:50.891Z,46.3432
2023-03-29T10:55:52.309Z,46.3816
2023-03-29T10:56:53.739Z,46.3940
2023-03-29T10:57:55.182Z,46.4169
2023-03-29T10:58:56.625Z,46.4643
2023-03-29T10:59:58.042Z,46.4946
2023-03-29T11:00:59.491Z,46.5201
2023-03-29T11:02:00.910Z,46.5609
2023-03-29T11:03:02.377Z,46.5878
2023-03-29T11:04:03.873Z,46.6191
2023-03-29T11:05:05.211Z,46.6363
2023-03-29T11:06:06.597Z,46.6350
2023-03-29T11:07:08.062Z,46.6290
2023-03-29T11:08:09.486Z,46.6579
2023-03-29T11:09:10.886Z,46.6870
2023-03-29T11:10:12.369Z,46.7493
2023-03-29T11:11:13.739Z,46.7856
2023-03-29T11:12:16.423Z,46.8039
2023-03-29T11:13:16.588Z,46.7971
2023-03-29T11:14:18.032Z,46.8099
2023-03-29T11:15:19.445Z,46.8471
2023-03-29T11:16:20.998Z,46.8445
2023-03-29T11:17:22.390Z,46.8556
2023-03-29T11:18:23.739Z,46.8499
2023-03-29T11:19:25.177Z,46.7802
2023-03-29T11:20:26.573Z,46.7582
2023-03-29T11:21:28.069Z,46.6506
2023-03-29T11:22:29.431Z,46.5684
2023-03-29T11:23:30.866Z,46.4874
2023-03-29T11:24:32.286Z,46.3666
2023-03-29T11:25:33.709Z,46.3071
2023-03-29T11:26:35.205Z,46.2493
2023-03-29T11:27:36.582Z,46.2493
2023-03-29T11:28:37.988Z,46.2553
2023-03-29T11:29:39.432Z,46.2497
2023-03-29T11:30:40.845Z,46.2735
2023-03-29T11:31:42.344Z,46.2771
2023-03-29T11:32:43.725Z,46.2807
2023-03-29T11:33:45.157Z,46.4081
2023-03-29T11:34:46.530Z,46.4981
2023-03-29T11:35:48.131Z,46.5046
2023-03-29T11:36:49.389Z,46.4870
2023-03-29T11:37:50.825Z,46.4634
2023-03-29T11:38:52.242Z,46.4488
2023-03-29T11:39:53.690Z,46.4672
2023-03-29T11:40:55.094Z,46.4745
2023-03-29T11:41:56.564Z,46.4355
2023-03-29T11:42:57.950Z,46.4436
2023-03-29T11:43:59.375Z,46.4312
2023-03-29T11:45:00.810Z,46.4677
2023-03-29T11:46:02.277Z,46.4024
2023-03-29T11:47:03.741Z,46.2878
2023-03-29T11:48:05.176Z,46.2223
2023-03-29T11:49:06.518Z,46.1933
2023-03-29T11:50:07.945Z,46.1641
2023-03-29T11:51:09.365Z,46.1359
2023-03-29T11:52:10.797Z,46.0677
2023-03-29T11:53:12.241Z,46.0484
2023-03-29T11:54:13.641Z,46.0183
2023-03-29T11:55:15.069Z,46.0288
2023-03-29T11:56:16.491Z,46.0571
2023-03-29T11:57:17.999Z,46.0407
2023-03-29T11:58:19.330Z,46.0382
2023-03-29T11:59:20.747Z,45.9914
2023-03-29T12:00:22.176Z,45.8941
2023-03-29T12:01:23.585Z,45.7954
2023-03-29T12:02:25.221Z,45.6970
2023-03-29T12:03:26.495Z,45.6142
2023-03-29T12:04:27.928Z,45.5634
2023-03-29T12:05:29.296Z,45.5212
2023-03-29T12:06:30.741Z,45.4669
2023-03-29T12:07:32.199Z,45.4195
2023-03-29T12:08:33.590Z,45.4179
2023-03-29T12:09:34.998Z,45.2212
2023-03-29T12:10:36.449Z,44.3304
2023-03-29T12:11:37.857Z,43.1077
2023-03-29T12:12:39.310Z,42.6091
2023-03-29T12:13:40.725Z,42.4321
2023-03-29T12:14:42.169Z,42.4868
2023-03-29T12:15:43.604Z,42.6658
2023-03-29T12:16:45.066Z,42.8862
2023-03-29T12:17:46.497Z,42.9440
2023-03-29T12:18:47.882Z,43.0740
2023-03-29T12:19:49.284Z,43.3421
2023-03-29T12:20:50.730Z,43.4944
2023-03-29T12:21:52.137Z,43.6088
2023-03-29T12:22:53.606Z,43.6514